Terminal Aerodrome Forecast
Issued by NWS

Current Version | Previous Version | Text Only | Print | Product List | Glossary Off
Versions: 1 2 3 4 5 6 7 8 9 10 11 12 13 14 15 16 17 18

744
FTUS41 KILN 101234 AAA
TAFLCK
TAF AMD
KLCK 101234Z 1013/1112 25008KT P6SM OVC035
      TEMPO 1013/1015 OVC025
     FM101500 25009KT P6SM SCT035 BKN080
     FM110000 14003KT P6SM VCSH BKN060
      AMD NOT SKED=

USA.gov is the U.S. government's official web portal to all federal, state and local government web resources and services.